Jervis Bay, Australia
Current Conditions -  °F | °C
As of 12:26 AM on Friday 24 Oct 2014 (Local Time) from YSNW Reporting Station
Overcast Overcast  
Wind Chill: 64°   Ceiling: 6400
Heat Index: 64°   Visibility: 6mi
Dew Point: 64°   Wind: 20mph
Humidity: 100%   Direction: 20°NNE
Pressure: 30.03"   Gusts: NA
Location:  35.13°S, 150.71°E
Report Text: YSNW 231326Z AUTO 02017KT 9999 // SCT006 BKN064 OVC100 18/18 Q1017
Loading
Personal Weather Stations






























Interactive Weather Map
Tropical Storm Tracking
New forecast layout! Learn more

10-Day Weather Forecast

Advertisements
Track Severe Weather on mobile